sensor_id;sensor_type;location;lat;lon;timestamp;pressure;altitude;pressure_sealevel;temperature;humidity
18819;BME280;9537;45.594;9.294;2023-05-02T00:00:22;99556.41;;;15.08;86.25
18819;BME280;9537;45.594;9.294;2023-05-02T00:01:28;99562.31;;;15.10;86.19
18819;BME280;9537;45.594;9.294;2023-05-02T00:02:35;99551.09;;;15.08;85.98
18819;BME280;9537;45.594;9.294;2023-05-02T00:03:41;99557.41;;;15.07;86.23
18819;BME280;9537;45.594;9.294;2023-05-02T00:04:50;99555.16;;;15.04;86.57
18819;BME280;9537;45.594;9.294;2023-05-02T00:05:56;99553.75;;;15.08;86.28
18819;BME280;9537;45.594;9.294;2023-05-02T00:07:03;99556.19;;;15.09;86.34
18819;BME280;9537;45.594;9.294;2023-05-02T00:08:09;99554.97;;;15.12;86.01
18819;BME280;9537;45.594;9.294;2023-05-02T00:09:16;99552.72;;;15.09;86.10
18819;BME280;9537;45.594;9.294;2023-05-02T00:10:24;99550.25;;;15.07;85.95
18819;BME280;9537;45.594;9.294;2023-05-02T00:11:30;99554.56;;;15.08;86.15
18819;BME280;9537;45.594;9.294;2023-05-02T00:12:36;99546.59;;;15.08;86.35
18819;BME280;9537;45.594;9.294;2023-05-02T00:13:44;99547.59;;;15.07;86.50
18819;BME280;9537;45.594;9.294;2023-05-02T00:14:45;99548.44;;;15.08;86.02
18819;BME280;9537;45.594;9.294;2023-05-02T00:15:52;99548.00;;;15.04;86.53
18819;BME280;9537;45.594;9.294;2023-05-02T00:16:58;99541.88;;;15.04;86.37
18819;BME280;9537;45.594;9.294;2023-05-02T00:18:05;99550.06;;;15.02;86.58
18819;BME280;9537;45.594;9.294;2023-05-02T00:19:11;99541.88;;;14.97;87.01
18819;BME280;9537;45.594;9.294;2023-05-02T00:20:18;99540.84;;;14.98;86.91
18819;BME280;9537;45.594;9.294;2023-05-02T00:21:24;99544.94;;;14.94;86.71
18819;BME280;9537;45.594;9.294;2023-05-02T00:22:33;99542.28;;;15.01;86.49
18819;BME280;9537;45.594;9.294;2023-05-02T00:23:39;99539.63;;;15.01;86.20
18819;BME280;9537;45.594;9.294;2023-05-02T00:24:46;99542.28;;;15.01;86.13
18819;BME280;9537;45.594;9.294;2023-05-02T00:25:54;99541.25;;;15.02;86.59
18819;BME280;9537;45.594;9.294;2023-05-02T00:27:01;99534.13;;;15.02;86.27
18819;BME280;9537;45.594;9.294;2023-05-02T00:28:07;99528.38;;;14.99;85.90
18819;BME280;9537;45.594;9.294;2023-05-02T00:29:14;99537.16;;;14.99;86.27
18819;BME280;9537;45.594;9.294;2023-05-02T00:30:20;99539.22;;;15.04;85.47
18819;BME280;9537;45.594;9.294;2023-05-02T00:31:27;99538.59;;;15.02;85.67
18819;BME280;9537;45.594;9.294;2023-05-02T00:32:33;99538.00;;;15.00;85.79
18819;BME280;9537;45.594;9.294;2023-05-02T00:33:40;99536.34;;;14.99;86.20
18819;BME280;9537;45.594;9.294;2023-05-02T00:34:41;99535.94;;;14.95;86.65
18819;BME280;9537;45.594;9.294;2023-05-02T00:35:48;99537.16;;;14.93;86.21
18819;BME280;9537;45.594;9.294;2023-05-02T00:36:55;99535.13;;;14.88;86.53
18819;BME280;9537;45.594;9.294;2023-05-02T00:37:58;99539.00;;;14.92;87.06
18819;BME280;9537;45.594;9.294;2023-05-02T00:39:04;99539.81;;;14.93;86.43
18819;BME280;9537;45.594;9.294;2023-05-02T00:40:12;99538.81;;;14.94;86.63
18819;BME280;9537;45.594;9.294;2023-05-02T00:41:15;99536.97;;;14.94;86.55
18819;BME280;9537;45.594;9.294;2023-05-02T00:42:22;99534.91;;;14.90;86.98
18819;BME280;9537;45.594;9.294;2023-05-02T00:43:29;99530.00;;;14.93;86.90
18819;BME280;9537;45.594;9.294;2023-05-02T00:44:36;99536.75;;;14.96;86.34
18819;BME280;9537;45.594;9.294;2023-05-02T00:45:43;99527.78;;;14.97;86.47
18819;BME280;9537;45.594;9.294;2023-05-02T00:46:50;99531.84;;;14.93;86.39
18819;BME280;9537;45.594;9.294;2023-05-02T00:47:57;99527.16;;;14.88;86.95
18819;BME280;9537;45.594;9.294;2023-05-02T00:49:05;99529.81;;;14.88;86.89
18819;BME280;9537;45.594;9.294;2023-05-02T00:50:11;99527.75;;;14.90;86.89
18819;BME280;9537;45.594;9.294;2023-05-02T00:51:18;99529.19;;;14.93;86.84
18819;BME280;9537;45.594;9.294;2023-05-02T00:52:24;99530.00;;;14.93;86.55
18819;BME280;9537;45.594;9.294;2023-05-02T00:53:31;99527.34;;;14.93;86.83
18819;BME280;9537;45.594;9.294;2023-05-02T00:54:37;99525.50;;;14.87;87.13
18819;BME280;9537;45.594;9.294;2023-05-02T00:55:44;99528.16;;;14.80;87.73
18819;BME280;9537;45.594;9.294;2023-05-02T00:56:52;99524.47;;;14.81;87.45
18819;BME280;9537;45.594;9.294;2023-05-02T00:57:59;99521.84;;;14.88;86.88
18819;BME280;9537;45.594;9.294;2023-05-02T00:59:07;99517.94;;;14.84;86.89
18819;BME280;9537;45.594;9.294;2023-05-02T01:00:16;99516.09;;;14.84;86.83
18819;BME280;9537;45.594;9.294;2023-05-02T01:01:32;99516.31;;;14.83;86.95
18819;BME280;9537;45.594;9.294;2023-05-02T01:02:47;99519.38;;;14.80;87.12
18819;BME280;9537;45.594;9.294;2023-05-02T01:04:03;99510.97;;;14.76;87.49
18819;BME280;9537;45.594;9.294;2023-05-02T01:05:14;99509.75;;;14.79;87.16
18819;BME280;9537;45.594;9.294;2023-05-02T01:06:31;99506.66;;;14.82;87.16
18819;BME280;9537;45.594;9.294;2023-05-02T01:07:53;99504.63;;;14.84;86.77
18819;BME280;9537;45.594;9.294;2023-05-02T01:09:15;99509.75;;;14.85;86.79
18819;BME280;9537;45.594;9.294;2023-05-02T01:10:34;99508.31;;;14.83;87.28
18819;BME280;9537;45.594;9.294;2023-05-02T01:11:47;99511.00;;;14.83;86.97
18819;BME280;9537;45.594;9.294;2023-05-02T01:13:02;99502.78;;;14.84;87.24
18819;BME280;9537;45.594;9.294;2023-05-02T01:14:11;99502.19;;;14.82;87.60
18819;BME280;9537;45.594;9.294;2023-05-02T01:15:20;99504.00;;;14.82;87.16
18819;BME280;9537;45.594;9.294;2023-05-02T01:16:28;99499.09;;;14.79;87.64
18819;BME280;9537;45.594;9.294;2023-05-02T01:17:36;99495.84;;;14.83;87.22
18819;BME280;9537;45.594;9.294;2023-05-02T01:18:46;99497.88;;;14.81;87.68
18819;BME280;9537;45.594;9.294;2023-05-02T01:19:57;99491.53;;;14.76;87.92
18819;BME280;9537;45.594;9.294;2023-05-02T01:21:07;99494.19;;;14.69;88.24
18819;BME280;9537;45.594;9.294;2023-05-02T01:22:15;99488.66;;;14.71;88.21
18819;BME280;9537;45.594;9.294;2023-05-02T01:23:31;99487.84;;;14.70;88.35
18819;BME280;9537;45.594;9.294;2023-05-02T01:24:48;99476.22;;;14.71;88.55
18819;BME280;9537;45.594;9.294;2023-05-02T01:26:05;99481.13;;;14.74;88.31
18819;BME280;9537;45.594;9.294;2023-05-02T01:27:23;99483.97;;;14.73;88.17
18819;BME280;9537;45.594;9.294;2023-05-02T01:28:58;99481.31;;;14.73;88.37
18819;BME280;9537;45.594;9.294;2023-05-02T01:30:07;99477.66;;;14.74;88.14
18819;BME280;9537;45.594;9.294;2023-05-02T01:31:14;99484.38;;;14.76;87.87
18819;BME280;9537;45.594;9.294;2023-05-02T01:32:22;99488.47;;;14.72;88.04
18819;BME280;9537;45.594;9.294;2023-05-02T01:33:30;99476.81;;;14.73;87.75
18819;BME280;9537;45.594;9.294;2023-05-02T01:34:41;99479.28;;;14.75;87.81
18819;BME280;9537;45.594;9.294;2023-05-02T01:35:49;99479.47;;;14.73;87.99
18819;BME280;9537;45.594;9.294;2023-05-02T01:36:57;99478.25;;;14.76;87.52
18819;BME280;9537;45.594;9.294;2023-05-02T01:38:05;99479.47;;;14.73;88.16
18819;BME280;9537;45.594;9.294;2023-05-02T01:39:15;99468.84;;;14.73;88.18
18819;BME280;9537;45.594;9.294;2023-05-02T01:40:19;99478.47;;;14.74;88.37
18819;BME280;9537;45.594;9.294;2023-05-02T01:41:29;99466.63;;;14.77;87.68
18819;BME280;9537;45.594;9.294;2023-05-02T01:42:39;99477.25;;;14.77;87.20
18819;BME280;9537;45.594;9.294;2023-05-02T01:43:47;99481.13;;;14.74;87.44
18819;BME280;9537;45.594;9.294;2023-05-02T01:44:55;99479.28;;;14.75;88.08
18819;BME280;9537;45.594;9.294;2023-05-02T01:46:03;99483.38;;;14.77;88.23
18819;BME280;9537;45.594;9.294;2023-05-02T01:47:12;99488.69;;;14.84;87.01
18819;BME280;9537;45.594;9.294;2023-05-02T01:48:20;99483.16;;;14.79;87.11
18819;BME280;9537;45.594;9.294;2023-05-02T01:49:28;99481.34;;;14.79;87.15
18819;BME280;9537;45.594;9.294;2023-05-02T01:50:38;99486.63;;;14.73;87.72
18819;BME280;9537;45.594;9.294;2023-05-02T01:51:48;99485.63;;;14.74;87.97
18819;BME280;9537;45.594;9.294;2023-05-02T01:52:57;99493.97;;;14.71;88.09
18819;BME280;9537;45.594;9.294;2023-05-02T01:54:06;99489.69;;;14.70;88.82
18819;BME280;9537;45.594;9.294;2023-05-02T01:55:14;99486.41;;;14.68;88.94
18819;BME280;9537;45.594;9.294;2023-05-02T01:56:23;99490.50;;;14.70;88.82
18819;BME280;9537;45.594;9.294;2023-05-02T01:57:31;99488.88;;;14.69;89.16
18819;BME280;9537;45.594;9.294;2023-05-02T01:58:38;99496.25;;;14.67;89.34
18819;BME280;9537;45.594;9.294;2023-05-02T01:59:46;99494.59;;;14.66;89.44
18819;BME280;9537;45.594;9.294;2023-05-02T02:00:58;99485.59;;;14.67;89.67
18819;BME280;9537;45.594;9.294;2023-05-02T02:02:07;99488.66;;;14.64;89.70
18819;BME280;9537;45.594;9.294;2023-05-02T02:03:14;99488.47;;;14.66;89.75
18819;BME280;9537;45.594;9.294;2023-05-02T02:04:22;99479.69;;;14.65;90.07
18819;BME280;9537;45.594;9.294;2023-05-02T02:05:30;99485.19;;;14.63;89.67
18819;BME280;9537;45.594;9.294;2023-05-02T02:06:41;99478.66;;;14.59;89.44
18819;BME280;9537;45.594;9.294;2023-05-02T02:07:49;99482.34;;;14.65;89.57
18819;BME280;9537;45.594;9.294;2023-05-02T02:08:56;99480.69;;;14.64;89.78
18819;BME280;9537;45.594;9.294;2023-05-02T02:10:02;99476.00;;;14.66;89.51
18819;BME280;9537;45.594;9.294;2023-05-02T02:11:11;99479.69;;;14.65;89.73
18819;BME280;9537;45.594;9.294;2023-05-02T02:12:37;99477.63;;;14.67;89.68
18819;BME280;9537;45.594;9.294;2023-05-02T02:13:48;99482.13;;;14.67;89.71
18819;BME280;9537;45.594;9.294;2023-05-02T02:15:02;99474.75;;;14.62;90.11
18819;BME280;9537;45.594;9.294;2023-05-02T02:16:13;99480.69;;;14.64;90.09
18819;BME280;9537;45.594;9.294;2023-05-02T02:17:32;99488.03;;;14.62;90.23
18819;BME280;9537;45.594;9.294;2023-05-02T02:18:43;99481.50;;;14.64;90.42
18819;BME280;9537;45.594;9.294;2023-05-02T02:19:52;99480.69;;;14.64;89.79
18819;BME280;9537;45.594;9.294;2023-05-02T02:20:59;99478.25;;;14.62;89.94
18819;BME280;9537;45.594;9.294;2023-05-02T02:22:07;99480.69;;;14.64;90.32
18819;BME280;9537;45.594;9.294;2023-05-02T02:23:14;99480.50;;;14.66;90.51
18819;BME280;9537;45.594;9.294;2023-05-02T02:24:22;99487.66;;;14.65;90.49
18819;BME280;9537;45.594;9.294;2023-05-02T02:25:24;99484.38;;;14.63;90.20
18819;BME280;9537;45.594;9.294;2023-05-02T02:26:33;99489.69;;;14.63;89.99
18819;BME280;9537;45.594;9.294;2023-05-02T02:27:40;99481.72;;;14.63;89.73
18819;BME280;9537;45.594;9.294;2023-05-02T02:28:47;99483.75;;;14.61;89.58
18819;BME280;9537;45.594;9.294;2023-05-02T02:29:53;99487.22;;;14.61;89.80
18819;BME280;9537;45.594;9.294;2023-05-02T02:31:00;99490.94;;;14.60;89.75
18819;BME280;9537;45.594;9.294;2023-05-02T02:32:08;99493.78;;;14.59;88.95
18819;BME280;9537;45.594;9.294;2023-05-02T02:33:15;99482.31;;;14.58;89.36
18819;BME280;9537;45.594;9.294;2023-05-02T02:34:21;99476.19;;;14.58;89.03
18819;BME280;9537;45.594;9.294;2023-05-02T02:35:32;99478.22;;;14.56;89.03
18819;BME280;9537;45.594;9.294;2023-05-02T02:36:43;99482.34;;;14.52;89.23
18819;BME280;9537;45.594;9.294;2023-05-02T02:38:00;99478.44;;;14.54;89.41
18819;BME280;9537;45.594;9.294;2023-05-02T02:39:14;99470.47;;;14.54;89.89
18819;BME280;9537;45.594;9.294;2023-05-02T02:40:28;99470.47;;;14.54;89.68
18819;BME280;9537;45.594;9.294;2023-05-02T02:41:38;99469.03;;;14.52;89.51
18819;BME280;9537;45.594;9.294;2023-05-02T02:42:51;99462.88;;;14.51;89.73
18819;BME280;9537;45.594;9.294;2023-05-02T02:44:06;99466.59;;;14.57;89.05
18819;BME280;9537;45.594;9.294;2023-05-02T02:45:23;99459.44;;;14.57;89.34
18819;BME280;9537;45.594;9.294;2023-05-02T02:46:33;99457.38;;;14.53;89.82
18819;BME280;9537;45.594;9.294;2023-05-02T02:47:53;99457.41;;;14.59;88.82
18819;BME280;9537;45.594;9.294;2023-05-02T02:49:14;99452.69;;;14.68;87.90
18819;BME280;9537;45.594;9.294;2023-05-02T02:50:29;99448.78;;;14.71;87.18
18819;BME280;9537;45.594;9.294;2023-05-02T02:51:40;99457.59;;;14.64;87.83
18819;BME280;9537;45.594;9.294;2023-05-02T02:52:52;99457.19;;;14.61;87.99
18819;BME280;9537;45.594;9.294;2023-05-02T02:54:10;99463.72;;;14.58;88.22
18819;BME280;9537;45.594;9.294;2023-05-02T02:55:27;99467.59;;;14.56;88.38
18819;BME280;9537;45.594;9.294;2023-05-02T02:56:39;99468.22;;;14.58;88.26
18819;BME280;9537;45.594;9.294;2023-05-02T02:57:50;99469.03;;;14.58;88.09
18819;BME280;9537;45.594;9.294;2023-05-02T02:59:03;99473.31;;;14.53;88.42
18819;BME280;9537;45.594;9.294;2023-05-02T03:00:14;99467.81;;;14.54;88.52
18819;BME280;9537;45.594;9.294;2023-05-02T03:01:23;99468.00;;;14.53;88.19
18819;BME280;9537;45.594;9.294;2023-05-02T03:02:31;99477.38;;;14.49;88.68
18819;BME280;9537;45.594;9.294;2023-05-02T03:03:41;99468.78;;;14.47;88.76
18819;BME280;9537;45.594;9.294;2023-05-02T03:04:50;99470.63;;;14.46;88.97
18819;BME280;9537;45.594;9.294;2023-05-02T03:05:59;99467.56;;;14.42;89.04
18819;BME280;9537;45.594;9.294;2023-05-02T03:07:05;99476.53;;;14.41;89.56
18819;BME280;9537;45.594;9.294;2023-05-02T03:08:12;99469.78;;;14.39;89.56
18819;BME280;9537;45.594;9.294;2023-05-02T03:09:18;99469.59;;;14.40;89.52
18819;BME280;9537;45.594;9.294;2023-05-02T03:10:25;99467.97;;;14.39;89.37
18819;BME280;9537;45.594;9.294;2023-05-02T03:11:31;99465.91;;;14.41;89.71
18819;BME280;9537;45.594;9.294;2023-05-02T03:12:39;99459.59;;;14.42;89.57
18819;BME280;9537;45.594;9.294;2023-05-02T03:13:44;99474.91;;;14.47;89.13
18819;BME280;9537;45.594;9.294;2023-05-02T03:14:52;99464.28;;;14.47;88.90
18819;BME280;9537;45.594;9.294;2023-05-02T03:17:38;99464.28;;;14.40;88.58
18819;BME280;9537;45.594;9.294;2023-05-02T03:18:45;99461.63;;;14.40;88.92
18819;BME280;9537;45.594;9.294;2023-05-02T03:19:52;99455.69;;;14.38;88.86
18819;BME280;9537;45.594;9.294;2023-05-02T03:20:59;99465.50;;;14.38;89.22
18819;BME280;9537;45.594;9.294;2023-05-02T03:22:01;99456.50;;;14.39;89.03
18819;BME280;9537;45.594;9.294;2023-05-02T03:23:08;99458.56;;;14.37;89.45
18819;BME280;9537;45.594;9.294;2023-05-02T03:24:14;99459.38;;;14.37;89.32
18819;BME280;9537;45.594;9.294;2023-05-02T03:25:21;99460.38;;;14.36;89.19
18819;BME280;9537;45.594;9.294;2023-05-02T03:26:27;99466.09;;;14.33;89.33
18819;BME280;9537;45.594;9.294;2023-05-02T03:27:34;99466.09;;;14.33;89.16
18819;BME280;9537;45.594;9.294;2023-05-02T03:28:40;99464.28;;;14.34;89.26
18819;BME280;9537;45.594;9.294;2023-05-02T03:29:51;99463.03;;;14.30;89.33
18819;BME280;9537;45.594;9.294;2023-05-02T03:30:57;99459.97;;;14.33;89.34
18819;BME280;9537;45.594;9.294;2023-05-02T03:32:04;99460.38;;;14.36;89.03
18819;BME280;9537;45.594;9.294;2023-05-02T03:33:11;99465.31;;;14.39;89.21
18819;BME280;9537;45.594;9.294;2023-05-02T03:34:13;99460.38;;;14.36;89.38
18819;BME280;9537;45.594;9.294;2023-05-02T03:35:20;99462.84;;;14.31;89.54
18819;BME280;9537;45.594;9.294;2023-05-02T03:36:26;99467.34;;;14.31;89.79
18819;BME280;9537;45.594;9.294;2023-05-02T03:37:34;99466.31;;;14.32;89.95
18819;BME280;9537;45.594;9.294;2023-05-02T03:38:40;99474.47;;;14.30;90.10
18819;BME280;9537;45.594;9.294;2023-05-02T03:39:47;99470.00;;;14.31;90.18
18819;BME280;9537;45.594;9.294;2023-05-02T03:40:56;99470.59;;;14.33;90.04
18819;BME280;9537;45.594;9.294;2023-05-02T03:42:03;99462.63;;;14.33;89.97
18819;BME280;9537;45.594;9.294;2023-05-02T03:43:10;99468.75;;;14.33;89.65
18819;BME280;9537;45.594;9.294;2023-05-02T03:44:17;99473.66;;;14.30;90.09
18819;BME280;9537;45.594;9.294;2023-05-02T03:45:24;99461.19;;;14.30;90.57
18819;BME280;9537;45.594;9.294;2023-05-02T03:46:30;99463.44;;;14.27;90.51
18819;BME280;9537;45.594;9.294;2023-05-02T03:47:37;99470.59;;;14.26;90.66
18819;BME280;9537;45.594;9.294;2023-05-02T03:48:44;99474.06;;;14.27;90.45
18819;BME280;9537;45.594;9.294;2023-05-02T03:49:52;99473.88;;;14.28;90.83
18819;BME280;9537;45.594;9.294;2023-05-02T03:51:00;99478.34;;;14.28;90.69
18819;BME280;9537;45.594;9.294;2023-05-02T03:52:06;99485.72;;;14.26;90.91
18819;BME280;9537;45.594;9.294;2023-05-02T03:53:14;99484.69;;;14.27;90.94
18819;BME280;9537;45.594;9.294;2023-05-02T03:54:20;99483.88;;;14.26;91.33
18819;BME280;9537;45.594;9.294;2023-05-02T03:55:27;99475.69;;;14.28;91.02
18819;BME280;9537;45.594;9.294;2023-05-02T03:56:33;99474.06;;;14.27;90.67
18819;BME280;9537;45.594;9.294;2023-05-02T03:57:41;99466.72;;;14.29;91.28
18819;BME280;9537;45.594;9.294;2023-05-02T03:58:47;99468.34;;;14.30;91.22
18819;BME280;9537;45.594;9.294;2023-05-02T03:59:54;99460.59;;;14.28;92.09
18819;BME280;9537;45.594;9.294;2023-05-02T04:01:01;99463.25;;;14.28;91.79
18819;BME280;9537;45.594;9.294;2023-05-02T04:02:03;99462.03;;;14.31;92.01
18819;BME280;9537;45.594;9.294;2023-05-02T04:03:09;99470.81;;;14.31;92.22
18819;BME280;9537;45.594;9.294;2023-05-02T04:04:16;99462.84;;;14.31;91.44
18819;BME280;9537;45.594;9.294;2023-05-02T04:05:24;99460.38;;;14.30;91.76
18819;BME280;9537;45.594;9.294;2023-05-02T04:06:31;99455.69;;;14.32;91.86
18819;BME280;9537;45.594;9.294;2023-05-02T04:07:37;99455.88;;;14.30;91.72
18819;BME280;9537;45.594;9.294;2023-05-02T04:08:44;99460.19;;;14.31;91.65
18819;BME280;9537;45.594;9.294;2023-05-02T04:09:50;99461.59;;;14.27;92.21
18819;BME280;9537;45.594;9.294;2023-05-02T04:10:57;99454.47;;;14.34;91.91
18819;BME280;9537;45.594;9.294;2023-05-02T04:12:03;99455.69;;;14.32;92.07
18819;BME280;9537;45.594;9.294;2023-05-02T04:13:10;99469.16;;;14.30;92.37
18819;BME280;9537;45.594;9.294;2023-05-02T04:14:16;99468.75;;;14.27;92.33
18819;BME280;9537;45.594;9.294;2023-05-02T04:15:23;99467.72;;;14.21;92.85
18819;BME280;9537;45.594;9.294;2023-05-02T04:16:29;99470.38;;;14.21;93.26
18819;BME280;9537;45.594;9.294;2023-05-02T04:17:36;99470.38;;;14.21;93.53
18819;BME280;9537;45.594;9.294;2023-05-02T04:18:42;99477.31;;;14.22;93.29
18819;BME280;9537;45.594;9.294;2023-05-02T04:19:49;99483.06;;;14.26;93.12
18819;BME280;9537;45.594;9.294;2023-05-02T04:20:57;99481.22;;;14.26;92.52
18819;BME280;9537;45.594;9.294;2023-05-02T04:22:04;99481.41;;;14.25;93.12
18819;BME280;9537;45.594;9.294;2023-05-02T04:23:10;99485.50;;;14.27;92.70
18819;BME280;9537;45.594;9.294;2023-05-02T04:24:17;99473.25;;;14.26;92.90
18819;BME280;9537;45.594;9.294;2023-05-02T04:25:23;99475.09;;;14.26;93.25
18819;BME280;9537;45.594;9.294;2023-05-02T04:26:30;99479.78;;;14.30;92.62
18819;BME280;9537;45.594;9.294;2023-05-02T04:27:37;99476.53;;;14.28;93.17
18819;BME280;9537;45.594;9.294;2023-05-02T04:28:43;99468.13;;;14.25;93.18
18819;BME280;9537;45.594;9.294;2023-05-02T04:29:51;99465.50;;;14.31;92.89
18819;BME280;9537;45.594;9.294;2023-05-02T04:30:58;99467.13;;;14.32;93.41
18819;BME280;9537;45.594;9.294;2023-05-02T04:32:05;99472.44;;;14.32;92.91
18819;BME280;9537;45.594;9.294;2023-05-02T04:33:11;99464.47;;;14.32;93.03
18819;BME280;9537;45.594;9.294;2023-05-02T04:34:19;99471.81;;;14.30;93.00
18819;BME280;9537;45.594;9.294;2023-05-02T04:35:25;99471.81;;;14.30;93.44
18819;BME280;9537;45.594;9.294;2023-05-02T04:36:33;99467.72;;;14.28;93.43
18819;BME280;9537;45.594;9.294;2023-05-02T04:37:39;99480.00;;;14.29;93.40
18819;BME280;9537;45.594;9.294;2023-05-02T04:38:47;99488.97;;;14.28;93.65
18819;BME280;9537;45.594;9.294;2023-05-02T04:39:54;99478.97;;;14.30;93.54
18819;BME280;9537;45.594;9.294;2023-05-02T04:41:00;99485.72;;;14.26;93.69
18819;BME280;9537;45.594;9.294;2023-05-02T04:42:07;99486.31;;;14.28;93.39
18819;BME280;9537;45.594;9.294;2023-05-02T04:43:14;99482.03;;;14.27;93.85
18819;BME280;9537;45.594;9.294;2023-05-02T04:44:21;99488.16;;;14.27;93.65
18819;BME280;9537;45.594;9.294;2023-05-02T04:45:27;99486.31;;;14.28;93.76
18819;BME280;9537;45.594;9.294;2023-05-02T04:46:34;99489.19;;;14.26;93.71
18819;BME280;9537;45.594;9.294;2023-05-02T04:47:36;99488.16;;;14.27;93.67
18819;BME280;9537;45.594;9.294;2023-05-02T04:48:37;99485.50;;;14.27;93.56
18819;BME280;9537;45.594;9.294;2023-05-02T04:49:46;99493.28;;;14.29;93.76
18819;BME280;9537;45.594;9.294;2023-05-02T04:50:52;99488.59;;;14.31;93.61
18819;BME280;9537;45.594;9.294;2023-05-02T04:52:01;99498.59;;;14.29;93.83
18819;BME280;9537;45.594;9.294;2023-05-02T04:53:07;99491.44;;;14.29;93.47
18819;BME280;9537;45.594;9.294;2023-05-02T04:54:14;99488.78;;;14.29;93.31
18819;BME280;9537;45.594;9.294;2023-05-02T04:55:20;99494.28;;;14.28;93.08
18819;BME280;9537;45.594;9.294;2023-05-02T04:56:27;99493.91;;;14.31;93.04
18819;BME280;9537;45.594;9.294;2023-05-02T04:57:33;99484.28;;;14.36;92.45
18819;BME280;9537;45.594;9.294;2023-05-02T04:58:40;99489.19;;;14.33;92.75
18819;BME280;9537;45.594;9.294;2023-05-02T04:59:47;99487.97;;;14.35;92.67
18819;BME280;9537;45.594;9.294;2023-05-02T05:00:54;99486.59;;;14.39;92.49
18819;BME280;9537;45.594;9.294;2023-05-02T05:02:00;99481.63;;;14.36;92.40
18819;BME280;9537;45.594;9.294;2023-05-02T05:03:07;99484.28;;;14.36;92.47
18819;BME280;9537;45.594;9.294;2023-05-02T05:04:13;99479.19;;;14.35;92.44
18819;BME280;9537;45.594;9.294;2023-05-02T05:05:20;99473.88;;;14.35;93.07
18819;BME280;9537;45.594;9.294;2023-05-02T05:06:27;99486.94;;;14.36;92.87
18819;BME280;9537;45.594;9.294;2023-05-02T05:07:35;99483.28;;;14.37;92.95
18819;BME280;9537;45.594;9.294;2023-05-02T05:08:42;99485.97;;;14.37;92.92
18819;BME280;9537;45.594;9.294;2023-05-02T05:09:50;99493.09;;;14.37;92.69
18819;BME280;9537;45.594;9.294;2023-05-02T05:10:57;99493.09;;;14.37;92.38
18819;BME280;9537;45.594;9.294;2023-05-02T05:12:03;99494.09;;;14.36;92.86
18819;BME280;9537;45.594;9.294;2023-05-02T05:13:10;99493.50;;;14.34;92.30
18819;BME280;9537;45.594;9.294;2023-05-02T05:14:17;99489.81;;;14.35;92.44
18819;BME280;9537;45.594;9.294;2023-05-02T05:15:24;99494.09;;;14.36;92.51
18819;BME280;9537;45.594;9.294;2023-05-02T05:16:30;99495.31;;;14.33;92.51
18819;BME280;9537;45.594;9.294;2023-05-02T05:17:32;99496.59;;;14.37;92.21
18819;BME280;9537;45.594;9.294;2023-05-02T05:18:38;99507.22;;;14.37;92.43
18819;BME280;9537;45.594;9.294;2023-05-02T05:19:46;99516.00;;;14.38;92.39
18819;BME280;9537;45.594;9.294;2023-05-02T05:20:51;99514.16;;;14.38;92.47
18819;BME280;9537;45.594;9.294;2023-05-02T05:21:58;99508.84;;;14.38;92.18
18819;BME280;9537;45.594;9.294;2023-05-02T05:23:07;99510.88;;;14.36;92.71
18819;BME280;9537;45.594;9.294;2023-05-02T05:24:13;99516.00;;;14.38;92.36
18819;BME280;9537;45.594;9.294;2023-05-02T05:25:20;99512.53;;;14.37;92.64
18819;BME280;9537;45.594;9.294;2023-05-02T05:26:28;99520.09;;;14.40;92.38
18819;BME280;9537;45.594;9.294;2023-05-02T05:27:34;99508.44;;;14.41;92.34
18819;BME280;9537;45.594;9.294;2023-05-02T05:28:42;99513.78;;;14.48;92.03
18819;BME280;9537;45.594;9.294;2023-05-02T05:29:48;99514.38;;;14.43;91.76
18819;BME280;9537;45.594;9.294;2023-05-02T05:30:55;99521.53;;;14.43;92.31
18819;BME280;9537;45.594;9.294;2023-05-02T05:32:02;99518.88;;;14.43;91.95
18819;BME280;9537;45.594;9.294;2023-05-02T05:33:10;99510.09;;;14.42;92.50
18819;BME280;9537;45.594;9.294;2023-05-02T05:34:16;99514.38;;;14.43;92.04
18819;BME280;9537;45.594;9.294;2023-05-02T05:35:23;99506.63;;;14.49;91.29
18819;BME280;9537;45.594;9.294;2023-05-02T05:36:29;99517.03;;;14.50;90.99
18819;BME280;9537;45.594;9.294;2023-05-02T05:37:37;99516.03;;;14.51;90.77
18819;BME280;9537;45.594;9.294;2023-05-02T05:38:45;99506.88;;;14.54;90.91
18819;BME280;9537;45.594;9.294;2023-05-02T05:39:52;99510.53;;;14.53;90.15
18819;BME280;9537;45.594;9.294;2023-05-02T05:40:58;99511.31;;;14.47;90.40
18819;BME280;9537;45.594;9.294;2023-05-02T05:42:06;99512.34;;;14.46;90.80
18819;BME280;9537;45.594;9.294;2023-05-02T05:43:14;99513.78;;;14.48;90.46
18819;BME280;9537;45.594;9.294;2023-05-02T05:44:30;99510.28;;;14.48;90.77
18819;BME280;9537;45.594;9.294;2023-05-02T05:45:35;99517.84;;;14.44;90.16
18819;BME280;9537;45.594;9.294;2023-05-02T05:46:38;99518.25;;;14.41;90.12
18819;BME280;9537;45.594;9.294;2023-05-02T05:47:42;99516.81;;;14.38;90.86
18819;BME280;9537;45.594;9.294;2023-05-02T05:48:44;99516.81;;;14.38;90.19
18819;BME280;9537;45.594;9.294;2023-05-02T05:49:51;99514.38;;;14.37;90.75
18819;BME280;9537;45.594;9.294;2023-05-02T05:51:02;99521.50;;;14.36;90.52
18819;BME280;9537;45.594;9.294;2023-05-02T05:52:09;99514.56;;;14.35;91.05
18819;BME280;9537;45.594;9.294;2023-05-02T05:53:15;99521.50;;;14.36;91.75
18819;BME280;9537;45.594;9.294;2023-05-02T05:54:23;99519.88;;;14.35;91.97
18819;BME280;9537;45.594;9.294;2023-05-02T05:55:30;99519.88;;;14.35;92.79
18819;BME280;9537;45.594;9.294;2023-05-02T05:56:36;99527.84;;;14.35;92.87
18819;BME280;9537;45.594;9.294;2023-05-02T05:57:43;99522.75;;;14.34;92.25
18819;BME280;9537;45.594;9.294;2023-05-02T05:58:49;99529.06;;;14.33;90.92
18819;BME280;9537;45.594;9.294;2023-05-02T05:59:56;99528.06;;;14.34;91.19
18819;BME280;9537;45.594;9.294;2023-05-02T06:01:02;99527.03;;;14.35;91.62
18819;BME280;9537;45.594;9.294;2023-05-02T06:02:09;99532.13;;;14.36;91.20
18819;BME280;9537;45.594;9.294;2023-05-02T06:03:15;99529.47;;;14.36;90.81
18819;BME280;9537;45.594;9.294;2023-05-02T06:04:18;99529.69;;;14.35;91.41
18819;BME280;9537;45.594;9.294;2023-05-02T06:05:25;99529.09;;;14.39;91.56
18819;BME280;9537;45.594;9.294;2023-05-02T06:06:31;99529.09;;;14.46;91.15